Saga Sky — VRYB8 — position and weather

sailwx.info

Track history (hours):
 
Tides and Currents Weather Stations Pressure Air Temp Water Temp Dewpoint Dewpoint Depression Visibility Wind Speed Wind Dir Waves Ship Positions

Saga Sky

Last reported at 2018-Jan-05 00:21 UTC. Time now 2018-Jan-18 02:22 UTC.
Position S 24°26' W 046°03'.
Warning: this ship's position is 13 days out of date.

Length 199 m; draft 11.2 m.

Type: Cargo ship. MMSI: 477198000.

Date/timePositionNaut miles runAvg speedWind from/ knotsBaromVisibWave heightAir tempDewpointWater temp
2018-Jan-05 00:21S 24°26' W 046°03'710.4
2018-Jan-04 23:38S 24°24' W 046°11'310.2
2018-Jan-04 23:22S 24°24' W 046°14'410.5
2018-Jan-04 23:00S 24°21' W 046°17'510.7
2018-Jan-04 22:31S 24°17' W 046°20'510.7
2018-Jan-04 22:00S 24°11' W 046°22'510.7
2018-Jan-04 21:30S 24°06' W 046°23'510.3
2018-Jan-04 21:00S 24°01' W 046°21'3 7.0
2018-Jan-04 20:31S 23°59' W 046°17'2 2.7
2018-Jan-04 19:56S 23°58' W 046°18'0 0.0
2018-Jan-04 16:31S 23°58' W 046°18'0 0.0
2018-Jan-04 15:07S 23°58' W 046°18'0 0.0
2018-Jan-04 14:55S 23°58' W 046°18'0 0.0
2018-Jan-04 14:25S 23°58' W 046°18'0 0.0
2018-Jan-04 13:55S 23°58' W 046°18'0 0.0
2018-Jan-04 13:25S 23°58' W 046°18'0 0.0
2018-Jan-04 12:43S 23°58' W 046°18'0 0.0
2018-Jan-04 12:16S 23°58' W 046°18'0 0.0
2018-Jan-04 11:55S 23°58' W 046°18'0 0.0
2018-Jan-04 10:16S 23°58' W 046°18'0 0.0
2018-Jan-04 09:49S 23°58' W 046°18'0 0.0
2018-Jan-04 09:25S 23°58' W 046°18'0 0.0
2018-Jan-04 08:49S 23°58' W 046°18'0 0.0
2018-Jan-04 07:25S 23°58' W 046°18'0 0.0
2018-Jan-04 06:31S 23°58' W 046°18'0 0.0
2018-Jan-04 06:19S 23°58' W 046°18'0 0.0
2018-Jan-04 05:55S 23°58' W 046°18'0 0.0
2018-Jan-04 05:25S 23°58' W 046°18'0 0.0
2018-Jan-04 04:55S 23°58' W 046°18'0 0.0
2018-Jan-04 04:19S 23°58' W 046°18'0 0.0
2018-Jan-04 03:55S 23°58' W 046°18'0 0.0
2018-Jan-04 02:37S 23°58' W 046°18'0 0.0
2018-Jan-04 02:28S 23°58' W 046°18'1 1.9
2018-Jan-04 02:00S 23°57' W 046°19'0 0.0
2018-Jan-02 17:38S 23°57' W 046°18'1 5.8
2018-Jan-02 17:30S 23°58' W 046°18'3 5.6
2018-Jan-02 17:00S 23°60' W 046°20'4 8.9
2018-Jan-02 16:30S 24°04' W 046°22'4 8.0
2018-Jan-02 16:00S 24°08' W 046°22'4 7.8
2018-Jan-02 15:30S 24°11' W 046°20'2 3.5
2018-Jan-02 15:00S 24°13' W 046°19'0 0.1
2018-Jan-02 14:29S 24°13' W 046°19'0 0.0
2018-Jan-02 13:59S 24°13' W 046°19'0 0.0
2018-Jan-02 13:29S 24°13' W 046°19'0 0.1
2018-Jan-02 12:59S 24°13' W 046°19'0 0.1
2018-Jan-02 12:23S 24°13' W 046°19'0 0.0
2018-Jan-02 11:59S 24°13' W 046°19'0 0.1
2018-Jan-02 11:29S 24°13' W 046°19'0 0.1
2018-Jan-02 10:59S 24°13' W 046°19'0 0.1
2018-Jan-02 10:29S 24°13' W 046°19'0 0.1
2018-Jan-02 09:59S 24°13' W 046°19'0 0.0
2018-Jan-02 09:29S 24°13' W 046°19'0 0.0
2018-Jan-02 08:29S 24°13' W 046°19'0 0.1
2018-Jan-02 07:59S 24°13' W 046°19'0 0.0
2018-Jan-02 07:29S 24°13' W 046°19'0 0.1
2018-Jan-02 06:53S 24°13' W 046°19'0 0.0
2018-Jan-02 06:29S 24°13' W 046°19'0 0.0
2018-Jan-02 05:59S 24°13' W 046°19'0 0.0
2018-Jan-02 05:29S 24°13' W 046°19'0 0.0
2018-Jan-02 04:29S 24°13' W 046°19'0 0.0
2018-Jan-02 03:53S 24°13' W 046°19'0 0.0
2018-Jan-02 03:29S 24°13' W 046°19'0 0.0
2018-Jan-02 02:59S 24°13' W 046°19'0 0.0
2018-Jan-02 02:29S 24°13' W 046°19'0 0.0
2018-Jan-02 01:59S 24°13' W 046°19'0 0.0
2018-Jan-02 01:17S 24°13' W 046°19'0 0.0
2018-Jan-02 00:59S 24°13' W 046°19'0 0.0
2018-Jan-02 00:29S 24°13' W 046°19'0 0.0
2018-Jan-01 23:59S 24°13' W 046°19'0 0.0
2018-Jan-01 23:29S 24°13' W 046°19'0 0.0
2018-Jan-01 22:59S 24°13' W 046°19'0 0.0
2018-Jan-01 22:26S 24°13' W 046°19'0 0.0
2018-Jan-01 21:50S 24°13' W 046°19'0 0.0
2018-Jan-01 21:26S 24°13' W 046°19'0 0.0
2018-Jan-01 20:59S 24°13' W 046°19'0 0.0
2018-Jan-01 20:23S 24°13' W 046°19'0 0.1
2018-Jan-01 19:59S 24°13' W 046°19'0 0.1
2018-Jan-01 19:29S 24°13' W 046°19'0 0.0
2018-Jan-01 18:59S 24°13' W 046°19'0 0.0
2018-Jan-01 18:29S 24°13' W 046°19'0 0.0
2018-Jan-01 17:59S 24°13' W 046°19'0 0.0
2018-Jan-01 17:29S 24°13' W 046°19'0 0.0
2018-Jan-01 14:41S 24°13' W 046°19'0 0.0
2018-Jan-01 14:29S 24°13' W 046°19'0 0.1
2018-Jan-01 13:59S 24°13' W 046°19'0 0.0
2018-Jan-01 13:26S 24°13' W 046°19'0 0.0
2018-Jan-01 12:59S 24°13' W 046°19'0 0.0
2018-Jan-01 11:59S 24°13' W 046°19'0 0.0
2018-Jan-01 11:29S 24°13' W 046°19'0 0.0
2018-Jan-01 10:53S 24°13' W 046°19'0 0.0
2018-Jan-01 10:29S 24°13' W 046°19'0 0.0
2018-Jan-01 09:53S 24°13' W 046°19'0 0.0
2018-Jan-01 09:29S 24°13' W 046°19'0 0.0
2018-Jan-01 08:29S 24°13' W 046°19'0 0.0
2018-Jan-01 07:59S 24°13' W 046°19'0 0.0
2018-Jan-01 07:17S 24°13' W 046°19'0 0.2
2018-Jan-01 06:56S 24°13' W 046°19'0 0.2
2018-Jan-01 05:59S 24°13' W 046°19'0 0.0
2018-Jan-01 05:29S 24°13' W 046°19'0 0.0
2018-Jan-01 04:59S 24°13' W 046°19'0 0.0
2018-Jan-01 03:59S 24°13' W 046°19'0 0.0
2018-Jan-01 03:29S 24°13' W 046°19'0 0.0
2018-Jan-01 02:53S 24°13' W 046°19'0 0.1
2018-Jan-01 02:29S 24°13' W 046°19'0 0.0
2018-Jan-01 01:59S 24°13' W 046°19'0 0.0
2018-Jan-01 01:29S 24°13' W 046°19'0 0.0
2018-Jan-01 00:29S 24°13' W 046°19'0 0.0
2017-Dec-31 20:59S 24°13' W 046°19'0 0.0
2017-Dec-31 20:29S 24°13' W 046°19'0 0.0
2017-Dec-31 19:41S 24°13' W 046°19'0 0.0
2017-Dec-31 19:29S 24°13' W 046°19'0 0.0
2017-Dec-31 18:59S 24°13' W 046°19'0 0.1
2017-Dec-31 18:23S 24°13' W 046°19'0 0.1
2017-Dec-31 17:53S 24°13' W 046°19'0 0.0
2017-Dec-31 17:17S 24°13' W 046°19'0 0.0
2017-Dec-31 16:50S 24°13' W 046°19'0 0.0
2017-Dec-31 16:29S 24°13' W 046°19'0 0.0
2017-Dec-31 15:59S 24°13' W 046°19'0 0.0
2017-Dec-31 15:29S 24°13' W 046°19'0 0.0
2017-Dec-31 14:59S 24°13' W 046°19'0 0.0
2017-Dec-31 14:23S 24°13' W 046°19'0 0.0
2017-Dec-31 13:59S 24°13' W 046°19'0 0.0
2017-Dec-31 13:29S 24°13' W 046°19'0 0.0
2017-Dec-31 12:59S 24°13' W 046°19'0 0.0
2017-Dec-31 12:23S 24°13' W 046°19'0 0.1
2017-Dec-31 11:59S 24°13' W 046°19'0 0.0
2017-Dec-31 11:23S 24°13' W 046°19'0 0.0
2017-Dec-31 10:59S 24°13' W 046°19'0 0.0
2017-Dec-31 10:23S 24°13' W 046°19'0 0.1
2017-Dec-31 09:59S 24°13' W 046°19'0 0.1
2017-Dec-31 09:29S 24°13' W 046°19'0 0.0
2017-Dec-31 08:59S 24°13' W 046°19'0 0.1
2017-Dec-31 08:20S 24°13' W 046°19'0 0.1
2017-Dec-31 07:59S 24°13' W 046°19'0 0.0
2017-Dec-31 07:29S 24°13' W 046°19'0 0.0
2017-Dec-31 06:56S 24°13' W 046°19'0 0.0
2017-Dec-31 06:23S 24°13' W 046°19'0 0.0
2017-Dec-31 05:59S 24°13' W 046°19'0 0.1
2017-Dec-31 05:29S 24°13' W 046°19'0 0.1
2017-Dec-31 04:59S 24°13' W 046°19'0 0.1
2017-Dec-31 04:29S 24°13' W 046°19'0 0.0
2017-Dec-31 03:59S 24°13' W 046°19'0 0.1
2017-Dec-31 03:29S 24°13' W 046°19'0 0.0
2017-Dec-31 02:59S 24°13' W 046°19'0 0.0
2017-Dec-31 02:29S 24°13' W 046°19'0 0.2
2017-Dec-31 01:59S 24°13' W 046°19'0 0.1
2017-Dec-31 01:29S 24°13' W 046°19'0 0.0
2017-Dec-31 00:59S 24°13' W 046°19'0 0.2
2017-Dec-31 00:23S 24°13' W 046°19'0 0.5
2017-Dec-30 23:59S 24°13' W 046°19'0 0.0
2017-Dec-30 23:29S 24°13' W 046°19'0 0.0
2017-Dec-30 22:59S 24°13' W 046°19'0 0.0
2017-Dec-30 22:29S 24°13' W 046°19'0 0.0
2017-Dec-30 21:59S 24°13' W 046°19'0 0.0
2017-Dec-30 21:29S 24°13' W 046°19'0 0.0
2017-Dec-30 20:59S 24°13' W 046°19'0 0.0
2017-Dec-30 20:29S 24°13' W 046°19'0 0.0
2017-Dec-30 19:59S 24°13' W 046°19'0 0.0
2017-Dec-30 19:29S 24°13' W 046°19'0 0.0
2017-Dec-30 18:59S 24°13' W 046°19'0 0.0
2017-Dec-30 18:29S 24°13' W 046°19'0 0.0
2017-Dec-30 17:59S 24°13' W 046°19'0 0.0
2017-Dec-30 17:29S 24°13' W 046°19'0 0.0
2017-Dec-30 16:59S 24°13' W 046°19'0 0.0
2017-Dec-30 16:29S 24°12' W 046°19'0 0.0
2017-Dec-30 15:56S 24°12' W 046°19'0 0.0
2017-Dec-30 15:29S 24°12' W 046°19'0 0.0
2017-Dec-30 14:59S 24°13' W 046°19'0 0.0
2017-Dec-30 14:26S 24°13' W 046°19'0 0.0
2017-Dec-30 13:56S 24°13' W 046°19'0 0.0
2017-Dec-30 13:29S 24°13' W 046°19'0 0.0
2017-Dec-30 12:56S 24°12' W 046°19'0 0.0
2017-Dec-30 12:29S 24°12' W 046°19'0 0.0
2017-Dec-30 11:59S 24°12' W 046°19'0 0.0
2017-Dec-30 11:29S 24°12' W 046°19'0 0.0
2017-Dec-30 10:56S 24°12' W 046°19'0 0.0
2017-Dec-30 10:29S 24°12' W 046°19'0 0.0
2017-Dec-30 09:59S 24°12' W 046°19'0 0.0
2017-Dec-30 09:29S 24°12' W 046°19'0 0.0
2017-Dec-30 08:56S 24°12' W 046°19'0 0.0
2017-Dec-30 08:29S 24°12' W 046°19'0 0.0
2017-Dec-30 07:59S 24°13' W 046°19'0 0.0
2017-Dec-30 07:29S 24°12' W 046°19'0 0.1
2017-Dec-30 06:59S 24°13' W 046°19'0 0.0
2017-Dec-30 06:29S 24°13' W 046°19'0 0.0
2017-Dec-30 05:59S 24°13' W 046°19'0 0.0
2017-Dec-30 05:29S 24°13' W 046°19'0 0.0
2017-Dec-30 04:47S 24°13' W 046°19'0 0.0
2017-Dec-30 04:26S 24°13' W 046°19'0 0.1
2017-Dec-30 03:53S 24°13' W 046°19'0 0.0
2017-Dec-30 03:29S 24°13' W 046°19'0 0.0
2017-Dec-30 02:56S 24°13' W 046°19'0 0.0
2017-Dec-30 02:29S 24°13' W 046°19'0 0.0
2017-Dec-30 01:59S 24°13' W 046°19'0 0.0
2017-Dec-30 01:29S 24°13' W 046°19'0 0.0
2017-Dec-30 00:59S 24°13' W 046°19'0 0.0
2017-Dec-30 00:29S 24°13' W 046°19'0 0.0
2017-Dec-29 23:59S 24°13' W 046°19'0 0.0
2017-Dec-29 23:23S 24°13' W 046°19'0 0.0
2017-Dec-29 22:59S 24°13' W 046°19'0 0.0
2017-Dec-29 22:29S 24°13' W 046°19'0 0.0
2017-Dec-29 21:53S 24°13' W 046°19'0 0.0
2017-Dec-29 21:29S 24°13' W 046°19'0 0.0
2017-Dec-29 20:59S 24°13' W 046°19'0 0.0
2017-Dec-29 20:23S 24°13' W 046°19'0 0.0
2017-Dec-29 19:59S 24°13' W 046°19'0 0.0
2017-Dec-29 19:23S 24°13' W 046°19'0 0.0
2017-Dec-29 18:59S 24°13' W 046°19'0 0.0
2017-Dec-29 18:29S 24°13' W 046°19'0 0.0
2017-Dec-29 17:59S 24°13' W 046°19'0 0.0
2017-Dec-29 17:29S 24°13' W 046°19'0 0.0
2017-Dec-29 16:59S 24°13' W 046°19'0 0.0
2017-Dec-29 16:29S 24°13' W 046°19'0 0.0
2017-Dec-29 15:59S 24°13' W 046°19'0 0.0
2017-Dec-29 15:29S 24°13' W 046°19'0 0.0
2017-Dec-29 14:59S 24°13' W 046°19'0 0.0
2017-Dec-29 14:17S 24°13' W 046°19'0 0.0
2017-Dec-29 13:59S 24°13' W 046°19'0 0.0
2017-Dec-29 13:29S 24°13' W 046°19'0 0.0
2017-Dec-29 12:59S 24°13' W 046°19'0 0.0
2017-Dec-29 12:26S 24°13' W 046°19'0 0.0
2017-Dec-29 11:59S 24°13' W 046°19'0 0.0
2017-Dec-29 11:29S 24°13' W 046°19'0 0.0
2017-Dec-29 10:59S 24°13' W 046°19'0 0.0
2017-Dec-29 10:20S 24°13' W 046°19'0 0.0
2017-Dec-29 09:59S 24°13' W 046°19'0 0.0
2017-Dec-29 09:29S 24°13' W 046°19'0 0.0
2017-Dec-29 08:59S 24°13' W 046°19'0 0.0
2017-Dec-29 08:29S 24°13' W 046°19'0 0.0
2017-Dec-29 07:59S 24°13' W 046°19'0 0.0
2017-Dec-29 07:23S 24°13' W 046°19'0 0.0
2017-Dec-29 06:59S 24°13' W 046°19'0 0.0
2017-Dec-29 06:29S 24°13' W 046°19'0 0.0
2017-Dec-29 05:59S 24°13' W 046°19'0 0.0
2017-Dec-29 05:29S 24°13' W 046°19'0 0.0
2017-Dec-29 04:53S 24°13' W 046°19'0 0.0
2017-Dec-29 04:26S 24°13' W 046°19'0 0.0
2017-Dec-29 03:59S 24°13' W 046°19'0 0.0
2017-Dec-29 03:29S 24°13' W 046°19'0 0.0
2017-Dec-29 02:53S 24°13' W 046°19'0 0.0
2017-Dec-29 02:29S 24°13' W 046°19'0 0.0
2017-Dec-29 01:59S 24°13' W 046°19'0 0.0
2017-Dec-29 01:23S 24°13' W 046°19'0 0.0
2017-Dec-29 00:59S 24°13' W 046°19'0 0.0
2017-Dec-29 00:29S 24°13' W 046°19'0 0.0
2017-Dec-28 23:56S 24°13' W 046°19'0 0.0
2017-Dec-28 23:29S 24°13' W 046°19'0 0.0
2017-Dec-28 22:59S 24°13' W 046°19'0 0.0
2017-Dec-28 22:29S 24°13' W 046°19'0 0.0
2017-Dec-28 21:59S 24°13' W 046°19'0 0.0
2017-Dec-28 21:29S 24°13' W 046°19'0 0.0
2017-Dec-28 20:59S 24°13' W 046°19'0 0.0
2017-Dec-28 20:29S 24°13' W 046°19'0 0.0
2017-Dec-28 19:59S 24°13' W 046°19'0 0.0
2017-Dec-28 19:29S 24°13' W 046°19'0 0.0
2017-Dec-28 18:59S 24°13' W 046°19'0 0.0
2017-Dec-28 18:29S 24°13' W 046°19'0 0.0
2017-Dec-28 17:59S 24°13' W 046°19'0 0.0
2017-Dec-28 17:29S 24°13' W 046°19'0 0.0
2017-Dec-28 16:56S 24°13' W 046°19'0 0.0
2017-Dec-28 16:29S 24°13' W 046°19'0 0.0
2017-Dec-28 15:59S 24°13' W 046°19'0 0.0
2017-Dec-28 15:29S 24°13' W 046°19'0 0.0
2017-Dec-28 14:59S 24°13' W 046°19'0 0.0
2017-Dec-28 14:26S 24°13' W 046°19'0 0.0
2017-Dec-28 13:59S 24°13' W 046°19'0 0.0
2017-Dec-28 13:29S 24°13' W 046°19'0 0.0
2017-Dec-28 12:59S 24°13' W 046°19'0 0.0
2017-Dec-28 12:23S 24°13' W 046°19'0 0.0
2017-Dec-28 11:59S 24°13' W 046°19'0 0.0
2017-Dec-28 11:26S 24°13' W 046°19'0 0.0
2017-Dec-28 10:59S 24°13' W 046°19'0 0.0
2017-Dec-28 10:29S 24°13' W 046°19'0 0.0
2017-Dec-28 09:59S 24°13' W 046°19'0 0.0
2017-Dec-28 09:29S 24°13' W 046°19'0 0.0
2017-Dec-28 08:59S 24°13' W 046°19'0 0.0
2017-Dec-28 08:29S 24°13' W 046°19'0 0.0
2017-Dec-28 07:53S 24°13' W 046°19'0 0.0
2017-Dec-28 07:29S 24°13' W 046°19'0 0.0
2017-Dec-28 06:59S 24°13' W 046°19'0 0.0
2017-Dec-28 06:29S 24°13' W 046°19'0 0.0
2017-Dec-28 05:59S 24°13' W 046°19'0 0.0
2017-Dec-28 05:29S 24°13' W 046°19'0 0.0
2017-Dec-28 04:53S 24°13' W 046°19'0 0.0
2017-Dec-28 04:26S 24°13' W 046°19'0 0.0
2017-Dec-28 03:59S 24°13' W 046°19'0 0.0
2017-Dec-28 03:29S 24°13' W 046°19'0 0.0
2017-Dec-28 02:59S 24°13' W 046°19'0 0.0
2017-Dec-28 02:26S 24°13' W 046°19'0 0.0
2017-Dec-28 01:59S 24°13' W 046°19'0 0.0
2017-Dec-28 01:29S 24°13' W 046°19'0 0.0
2017-Dec-28 00:59S 24°13' W 046°19'0 0.0
2017-Dec-28 00:29S 24°13' W 046°19'0 0.0
2017-Dec-27 23:59S 24°13' W 046°19'0 0.0
2017-Dec-27 23:23S 24°13' W 046°19'0 0.0
2017-Dec-27 22:59S 24°13' W 046°19'0 0.0
2017-Dec-27 22:29S 24°13' W 046°19'0 0.0
2017-Dec-27 21:59S 24°13' W 046°19'0 0.0
2017-Dec-27 21:29S 24°13' W 046°19'0 0.0
2017-Dec-27 20:56S 24°13' W 046°19'0 0.0
2017-Dec-27 20:23S 24°13' W 046°19'0 0.1
2017-Dec-27 19:59S 24°13' W 046°19'0 0.0
2017-Dec-27 19:29S 24°13' W 046°19'0 0.0
2017-Dec-27 18:59S 24°13' W 046°19'0 0.0
2017-Dec-27 18:29S 24°13' W 046°19'0 0.0
2017-Dec-27 17:59S 24°13' W 046°19'0 0.0
2017-Dec-27 17:29S 24°13' W 046°19'0 0.0
2017-Dec-27 16:59S 24°13' W 046°19'0 0.0
2017-Dec-27 16:23S 24°13' W 046°19'0 0.0
2017-Dec-27 15:59S 24°13' W 046°19'0 0.0
2017-Dec-27 15:29S 24°13' W 046°19'0 0.0
2017-Dec-27 14:59S 24°13' W 046°19'0 0.0
2017-Dec-27 14:29S 24°13' W 046°19'0 0.0
2017-Dec-27 13:59S 24°13' W 046°19'0 0.0
2017-Dec-27 13:29S 24°13' W 046°19'0 0.0
2017-Dec-27 12:59S 24°13' W 046°19'0 0.0
2017-Dec-27 12:29S 24°13' W 046°19'0 0.0
2017-Dec-27 11:59S 24°13' W 046°19'0 0.0
2017-Dec-27 11:29S 24°13' W 046°19'0 0.0
2017-Dec-27 10:53S 24°13' W 046°19'0 0.0
2017-Dec-27 10:29S 24°13' W 046°19'0 0.0
2017-Dec-27 09:59S 24°13' W 046°19'0 0.0
2017-Dec-27 09:29S 24°13' W 046°19'0 0.0
2017-Dec-27 08:59S 24°13' W 046°19'0 0.0
2017-Dec-27 08:29S 24°13' W 046°19'0 0.0
2017-Dec-27 07:50S 24°13' W 046°19'0 0.0
2017-Dec-27 07:29S 24°13' W 046°19'0 0.0
2017-Dec-27 06:53S 24°13' W 046°19'0 0.0
2017-Dec-27 06:29S 24°13' W 046°19'0 0.0
2017-Dec-27 05:50S 24°13' W 046°19'0 0.0
2017-Dec-27 05:29S 24°13' W 046°19'0 0.0
2017-Dec-27 04:59S 24°12' W 046°19'0 0.0
2017-Dec-27 04:29S 24°13' W 046°19'0 0.0
2017-Dec-27 03:59S 24°13' W 046°19'0 0.0
2017-Dec-27 03:29S 24°13' W 046°19'0 0.0
2017-Dec-27 02:59S 24°12' W 046°19'0 0.0
2017-Dec-27 02:29S 24°13' W 046°19'0 0.0
2017-Dec-27 01:53S 24°12' W 046°19'0 0.0
2017-Dec-27 01:29S 24°13' W 046°19'0 0.0
2017-Dec-27 00:59S 24°13' W 046°19'0 0.0
2017-Dec-27 00:23S 24°12' W 046°19'0 0.0
2017-Dec-26 23:59S 24°12' W 046°19'0 0.0
2017-Dec-26 23:29S 24°12' W 046°19'0 0.0
2017-Dec-26 22:53S 24°12' W 046°19'0 0.0
2017-Dec-26 22:29S 24°12' W 046°19'0 0.0
2017-Dec-26 21:59S 24°12' W 046°19'0 0.0
2017-Dec-26 21:29S 24°12' W 046°19'0 0.0
2017-Dec-26 20:59S 24°12' W 046°19'0 0.0
2017-Dec-26 20:29S 24°12' W 046°19'0 0.0
2017-Dec-26 19:59S 24°12' W 046°19'0 0.0
2017-Dec-26 19:30S 24°12' W 046°19'0 0.9
2017-Dec-26 19:00S 24°12' W 046°19'2 4.0
2017-Dec-26 18:30S 24°13' W 046°21'3 5.1
2017-Dec-26 18:00S 24°16' W 046°21'510.0
2017-Dec-26 17:31S 24°20' W 046°18'612.0
2017-Dec-26 17:00S 24°23' W 046°13'713.8
2017-Dec-26 16:30S 24°24' W 046°05'  
Track history (hours):
 
Tides and Currents Weather Stations Pressure Air Temp Water Temp Dewpoint Dewpoint Depression Visibility Wind Speed Wind Dir Waves Ship Positions

Saga Sky

Last reported at 2018-Jan-05 00:21 UTC. Time now 2018-Jan-18 02:22 UTC.
Position S 24°26' W 046°03'.
Warning: this ship's position is 13 days out of date.

Length 199 m; draft 11.2 m.

Type: Cargo ship. MMSI: 477198000.

Date/timePositionNaut miles runAvg speedWind from/ knotsBaromVisibWave heightAir tempDewpointWater temp
2018-Jan-05 00:21S 24°26' W 046°03'710.4
2018-Jan-04 23:38S 24°24' W 046°11'310.2
2018-Jan-04 23:22S 24°24' W 046°14'410.5
2018-Jan-04 23:00S 24°21' W 046°17'510.7
2018-Jan-04 22:31S 24°17' W 046°20'510.7
2018-Jan-04 22:00S 24°11' W 046°22'510.7
2018-Jan-04 21:30S 24°06' W 046°23'510.3
2018-Jan-04 21:00S 24°01' W 046°21'3 7.0
2018-Jan-04 20:31S 23°59' W 046°17'2 2.7
2018-Jan-04 19:56S 23°58' W 046°18'0 0.0
2018-Jan-04 16:31S 23°58' W 046°18'0 0.0
2018-Jan-04 15:07S 23°58' W 046°18'0 0.0
2018-Jan-04 14:55S 23°58' W 046°18'0 0.0
2018-Jan-04 14:25S 23°58' W 046°18'0 0.0
2018-Jan-04 13:55S 23°58' W 046°18'0 0.0
2018-Jan-04 13:25S 23°58' W 046°18'0 0.0
2018-Jan-04 12:43S 23°58' W 046°18'0 0.0
2018-Jan-04 12:16S 23°58' W 046°18'0 0.0
2018-Jan-04 11:55S 23°58' W 046°18'0 0.0
2018-Jan-04 10:16S 23°58' W 046°18'0 0.0
2018-Jan-04 09:49S 23°58' W 046°18'0 0.0
2018-Jan-04 09:25S 23°58' W 046°18'0 0.0
2018-Jan-04 08:49S 23°58' W 046°18'0 0.0
2018-Jan-04 07:25S 23°58' W 046°18'0 0.0
2018-Jan-04 06:31S 23°58' W 046°18'0 0.0
2018-Jan-04 06:19S 23°58' W 046°18'0 0.0
2018-Jan-04 05:55S 23°58' W 046°18'0 0.0
2018-Jan-04 05:25S 23°58' W 046°18'0 0.0
2018-Jan-04 04:55S 23°58' W 046°18'0 0.0
2018-Jan-04 04:19S 23°58' W 046°18'0 0.0
2018-Jan-04 03:55S 23°58' W 046°18'0 0.0
2018-Jan-04 02:37S 23°58' W 046°18'0 0.0
2018-Jan-04 02:28S 23°58' W 046°18'1 1.9
2018-Jan-04 02:00S 23°57' W 046°19'0 0.0
2018-Jan-02 17:38S 23°57' W 046°18'1 5.8
2018-Jan-02 17:30S 23°58' W 046°18'3 5.6
2018-Jan-02 17:00S 23°60' W 046°20'4 8.9
2018-Jan-02 16:30S 24°04' W 046°22'4 8.0
2018-Jan-02 16:00S 24°08' W 046°22'4 7.8
2018-Jan-02 15:30S 24°11' W 046°20'2 3.5
2018-Jan-02 15:00S 24°13' W 046°19'0 0.1
2018-Jan-02 14:29S 24°13' W 046°19'0 0.0
2018-Jan-02 13:59S 24°13' W 046°19'0 0.0
2018-Jan-02 13:29S 24°13' W 046°19'0 0.1
2018-Jan-02 12:59S 24°13' W 046°19'0 0.1
2018-Jan-02 12:23S 24°13' W 046°19'0 0.0
2018-Jan-02 11:59S 24°13' W 046°19'0 0.1
2018-Jan-02 11:29S 24°13' W 046°19'0 0.1
2018-Jan-02 10:59S 24°13' W 046°19'0 0.1
2018-Jan-02 10:29S 24°13' W 046°19'0 0.1
2018-Jan-02 09:59S 24°13' W 046°19'0 0.0
2018-Jan-02 09:29S 24°13' W 046°19'0 0.0
2018-Jan-02 08:29S 24°13' W 046°19'0 0.1
2018-Jan-02 07:59S 24°13' W 046°19'0 0.0
2018-Jan-02 07:29S 24°13' W 046°19'0 0.1
2018-Jan-02 06:53S 24°13' W 046°19'0 0.0
2018-Jan-02 06:29S 24°13' W 046°19'0 0.0
2018-Jan-02 05:59S 24°13' W 046°19'0 0.0
2018-Jan-02 05:29S 24°13' W 046°19'0 0.0
2018-Jan-02 04:29S 24°13' W 046°19'0 0.0
2018-Jan-02 03:53S 24°13' W 046°19'0 0.0
2018-Jan-02 03:29S 24°13' W 046°19'0 0.0
2018-Jan-02 02:59S 24°13' W 046°19'0 0.0
2018-Jan-02 02:29S 24°13' W 046°19'0 0.0
2018-Jan-02 01:59S 24°13' W 046°19'0 0.0
2018-Jan-02 01:17S 24°13' W 046°19'0 0.0
2018-Jan-02 00:59S 24°13' W 046°19'0 0.0
2018-Jan-02 00:29S 24°13' W 046°19'0 0.0
2018-Jan-01 23:59S 24°13' W 046°19'0 0.0
2018-Jan-01 23:29S 24°13' W 046°19'0 0.0
2018-Jan-01 22:59S 24°13' W 046°19'0 0.0
2018-Jan-01 22:26S 24°13' W 046°19'0 0.0
2018-Jan-01 21:50S 24°13' W 046°19'0 0.0
2018-Jan-01 21:26S 24°13' W 046°19'0 0.0
2018-Jan-01 20:59S 24°13' W 046°19'0 0.0
2018-Jan-01 20:23S 24°13' W 046°19'0 0.1
2018-Jan-01 19:59S 24°13' W 046°19'0 0.1
2018-Jan-01 19:29S 24°13' W 046°19'0 0.0
2018-Jan-01 18:59S 24°13' W 046°19'0 0.0
2018-Jan-01 18:29S 24°13' W 046°19'0 0.0
2018-Jan-01 17:59S 24°13' W 046°19'0 0.0
2018-Jan-01 17:29S 24°13' W 046°19'0 0.0
2018-Jan-01 14:41S 24°13' W 046°19'0 0.0
2018-Jan-01 14:29S 24°13' W 046°19'0 0.1
2018-Jan-01 13:59S 24°13' W 046°19'0 0.0
2018-Jan-01 13:26S 24°13' W 046°19'0 0.0
2018-Jan-01 12:59S 24°13' W 046°19'0 0.0
2018-Jan-01 11:59S 24°13' W 046°19'0 0.0
2018-Jan-01 11:29S 24°13' W 046°19'0 0.0
2018-Jan-01 10:53S 24°13' W 046°19'0 0.0
2018-Jan-01 10:29S 24°13' W 046°19'0 0.0
2018-Jan-01 09:53S 24°13' W 046°19'0 0.0
2018-Jan-01 09:29S 24°13' W 046°19'0 0.0
2018-Jan-01 08:29S 24°13' W 046°19'0 0.0
2018-Jan-01 07:59S 24°13' W 046°19'0 0.0
2018-Jan-01 07:17S 24°13' W 046°19'0 0.2
2018-Jan-01 06:56S 24°13' W 046°19'0 0.2
2018-Jan-01 05:59S 24°13' W 046°19'0 0.0
2018-Jan-01 05:29S 24°13' W 046°19'0 0.0
2018-Jan-01 04:59S 24°13' W 046°19'0 0.0
2018-Jan-01 03:59S 24°13' W 046°19'0 0.0
2018-Jan-01 03:29S 24°13' W 046°19'0 0.0
2018-Jan-01 02:53S 24°13' W 046°19'0 0.1
2018-Jan-01 02:29S 24°13' W 046°19'0 0.0
2018-Jan-01 01:59S 24°13' W 046°19'0 0.0
2018-Jan-01 01:29S 24°13' W 046°19'0 0.0
2018-Jan-01 00:29S 24°13' W 046°19'0 0.0
2017-Dec-31 20:59S 24°13' W 046°19'0 0.0
2017-Dec-31 20:29S 24°13' W 046°19'0 0.0
2017-Dec-31 19:41S 24°13' W 046°19'0 0.0
2017-Dec-31 19:29S 24°13' W 046°19'0 0.0
2017-Dec-31 18:59S 24°13' W 046°19'0 0.1
2017-Dec-31 18:23S 24°13' W 046°19'0 0.1
2017-Dec-31 17:53S 24°13' W 046°19'0 0.0
2017-Dec-31 17:17S 24°13' W 046°19'0 0.0
2017-Dec-31 16:50S 24°13' W 046°19'0 0.0
2017-Dec-31 16:29S 24°13' W 046°19'0 0.0
2017-Dec-31 15:59S 24°13' W 046°19'0 0.0
2017-Dec-31 15:29S 24°13' W 046°19'0 0.0
2017-Dec-31 14:59S 24°13' W 046°19'0 0.0
2017-Dec-31 14:23S 24°13' W 046°19'0 0.0
2017-Dec-31 13:59S 24°13' W 046°19'0 0.0
2017-Dec-31 13:29S 24°13' W 046°19'0 0.0
2017-Dec-31 12:59S 24°13' W 046°19'0 0.0
2017-Dec-31 12:23S 24°13' W 046°19'0 0.1
2017-Dec-31 11:59S 24°13' W 046°19'0 0.0
2017-Dec-31 11:23S 24°13' W 046°19'0 0.0
2017-Dec-31 10:59S 24°13' W 046°19'0 0.0
2017-Dec-31 10:23S 24°13' W 046°19'0 0.1
2017-Dec-31 09:59S 24°13' W 046°19'0 0.1
2017-Dec-31 09:29S 24°13' W 046°19'0 0.0
2017-Dec-31 08:59S 24°13' W 046°19'0 0.1
2017-Dec-31 08:20S 24°13' W 046°19'0 0.1
2017-Dec-31 07:59S 24°13' W 046°19'0 0.0
2017-Dec-31 07:29S 24°13' W 046°19'0 0.0
2017-Dec-31 06:56S 24°13' W 046°19'0 0.0
2017-Dec-31 06:23S 24°13' W 046°19'0 0.0
2017-Dec-31 05:59S 24°13' W 046°19'0 0.1
2017-Dec-31 05:29S 24°13' W 046°19'0 0.1
2017-Dec-31 04:59S 24°13' W 046°19'0 0.1
2017-Dec-31 04:29S 24°13' W 046°19'0 0.0
2017-Dec-31 03:59S 24°13' W 046°19'0 0.1
2017-Dec-31 03:29S 24°13' W 046°19'0 0.0
2017-Dec-31 02:59S 24°13' W 046°19'0 0.0
2017-Dec-31 02:29S 24°13' W 046°19'0 0.2
2017-Dec-31 01:59S 24°13' W 046°19'0 0.1
2017-Dec-31 01:29S 24°13' W 046°19'0 0.0
2017-Dec-31 00:59S 24°13' W 046°19'0 0.2
2017-Dec-31 00:23S 24°13' W 046°19'0 0.5
2017-Dec-30 23:59S 24°13' W 046°19'0 0.0
2017-Dec-30 23:29S 24°13' W 046°19'0 0.0
2017-Dec-30 22:59S 24°13' W 046°19'0 0.0
2017-Dec-30 22:29S 24°13' W 046°19'0 0.0
2017-Dec-30 21:59S 24°13' W 046°19'0 0.0
2017-Dec-30 21:29S 24°13' W 046°19'0 0.0
2017-Dec-30 20:59S 24°13' W 046°19'0 0.0
2017-Dec-30 20:29S 24°13' W 046°19'0 0.0
2017-Dec-30 19:59S 24°13' W 046°19'0 0.0
2017-Dec-30 19:29S 24°13' W 046°19'0 0.0
2017-Dec-30 18:59S 24°13' W 046°19'0 0.0
2017-Dec-30 18:29S 24°13' W 046°19'0 0.0
2017-Dec-30 17:59S 24°13' W 046°19'0 0.0
2017-Dec-30 17:29S 24°13' W 046°19'0 0.0
2017-Dec-30 16:59S 24°13' W 046°19'0 0.0
2017-Dec-30 16:29S 24°12' W 046°19'0 0.0
2017-Dec-30 15:56S 24°12' W 046°19'0 0.0
2017-Dec-30 15:29S 24°12' W 046°19'0 0.0
2017-Dec-30 14:59S 24°13' W 046°19'0 0.0
2017-Dec-30 14:26S 24°13' W 046°19'0 0.0
2017-Dec-30 13:56S 24°13' W 046°19'0 0.0
2017-Dec-30 13:29S 24°13' W 046°19'0 0.0
2017-Dec-30 12:56S 24°12' W 046°19'0 0.0
2017-Dec-30 12:29S 24°12' W 046°19'0 0.0
2017-Dec-30 11:59S 24°12' W 046°19'0 0.0
2017-Dec-30 11:29S 24°12' W 046°19'0 0.0
2017-Dec-30 10:56S 24°12' W 046°19'0 0.0
2017-Dec-30 10:29S 24°12' W 046°19'0 0.0
2017-Dec-30 09:59S 24°12' W 046°19'0 0.0
2017-Dec-30 09:29S 24°12' W 046°19'0 0.0
2017-Dec-30 08:56S 24°12' W 046°19'0 0.0
2017-Dec-30 08:29S 24°12' W 046°19'0 0.0
2017-Dec-30 07:59S 24°13' W 046°19'0 0.0
2017-Dec-30 07:29S 24°12' W 046°19'0 0.1
2017-Dec-30 06:59S 24°13' W 046°19'0 0.0
2017-Dec-30 06:29S 24°13' W 046°19'0 0.0
2017-Dec-30 05:59S 24°13' W 046°19'0 0.0
2017-Dec-30 05:29S 24°13' W 046°19'0 0.0
2017-Dec-30 04:47S 24°13' W 046°19'0 0.0
2017-Dec-30 04:26S 24°13' W 046°19'0 0.1
2017-Dec-30 03:53S 24°13' W 046°19'0 0.0
2017-Dec-30 03:29S 24°13' W 046°19'0 0.0
2017-Dec-30 02:56S 24°13' W 046°19'0 0.0
2017-Dec-30 02:29S 24°13' W 046°19'0 0.0
2017-Dec-30 01:59S 24°13' W 046°19'0 0.0
2017-Dec-30 01:29S 24°13' W 046°19'0 0.0
2017-Dec-30 00:59S 24°13' W 046°19'0 0.0
2017-Dec-30 00:29S 24°13' W 046°19'0 0.0
2017-Dec-29 23:59S 24°13' W 046°19'0 0.0
2017-Dec-29 23:23S 24°13' W 046°19'0 0.0
2017-Dec-29 22:59S 24°13' W 046°19'0 0.0
2017-Dec-29 22:29S 24°13' W 046°19'0 0.0
2017-Dec-29 21:53S 24°13' W 046°19'0 0.0
2017-Dec-29 21:29S 24°13' W 046°19'0 0.0
2017-Dec-29 20:59S 24°13' W 046°19'0 0.0
2017-Dec-29 20:23S 24°13' W 046°19'0 0.0
2017-Dec-29 19:59S 24°13' W 046°19'0 0.0
2017-Dec-29 19:23S 24°13' W 046°19'0 0.0
2017-Dec-29 18:59S 24°13' W 046°19'0 0.0
2017-Dec-29 18:29S 24°13' W 046°19'0 0.0
2017-Dec-29 17:59S 24°13' W 046°19'0 0.0
2017-Dec-29 17:29S 24°13' W 046°19'0 0.0
2017-Dec-29 16:59S 24°13' W 046°19'0 0.0
2017-Dec-29 16:29S 24°13' W 046°19'0 0.0
2017-Dec-29 15:59S 24°13' W 046°19'0 0.0
2017-Dec-29 15:29S 24°13' W 046°19'0 0.0
2017-Dec-29 14:59S 24°13' W 046°19'0 0.0
2017-Dec-29 14:17S 24°13' W 046°19'0 0.0
2017-Dec-29 13:59S 24°13' W 046°19'0 0.0
2017-Dec-29 13:29S 24°13' W 046°19'0 0.0
2017-Dec-29 12:59S 24°13' W 046°19'0 0.0
2017-Dec-29 12:26S 24°13' W 046°19'0 0.0
2017-Dec-29 11:59S 24°13' W 046°19'0 0.0
2017-Dec-29 11:29S 24°13' W 046°19'0 0.0
2017-Dec-29 10:59S 24°13' W 046°19'0 0.0
2017-Dec-29 10:20S 24°13' W 046°19'0 0.0
2017-Dec-29 09:59S 24°13' W 046°19'0 0.0
2017-Dec-29 09:29S 24°13' W 046°19'0 0.0
2017-Dec-29 08:59S 24°13' W 046°19'0 0.0
2017-Dec-29 08:29S 24°13' W 046°19'0 0.0
2017-Dec-29 07:59S 24°13' W 046°19'0 0.0
2017-Dec-29 07:23S 24°13' W 046°19'0 0.0
2017-Dec-29 06:59S 24°13' W 046°19'0 0.0
2017-Dec-29 06:29S 24°13' W 046°19'0 0.0
2017-Dec-29 05:59S 24°13' W 046°19'0 0.0
2017-Dec-29 05:29S 24°13' W 046°19'0 0.0
2017-Dec-29 04:53S 24°13' W 046°19'0 0.0
2017-Dec-29 04:26S 24°13' W 046°19'0 0.0
2017-Dec-29 03:59S 24°13' W 046°19'0 0.0
2017-Dec-29 03:29S 24°13' W 046°19'0 0.0
2017-Dec-29 02:53S 24°13' W 046°19'0 0.0
2017-Dec-29 02:29S 24°13' W 046°19'0 0.0
2017-Dec-29 01:59S 24°13' W 046°19'0 0.0
2017-Dec-29 01:23S 24°13' W 046°19'0 0.0
2017-Dec-29 00:59S 24°13' W 046°19'0 0.0
2017-Dec-29 00:29S 24°13' W 046°19'0 0.0
2017-Dec-28 23:56S 24°13' W 046°19'0 0.0
2017-Dec-28 23:29S 24°13' W 046°19'0 0.0
2017-Dec-28 22:59S 24°13' W 046°19'0 0.0
2017-Dec-28 22:29S 24°13' W 046°19'0 0.0
2017-Dec-28 21:59S 24°13' W 046°19'0 0.0
2017-Dec-28 21:29S 24°13' W 046°19'0 0.0
2017-Dec-28 20:59S 24°13' W 046°19'0 0.0
2017-Dec-28 20:29S 24°13' W 046°19'0 0.0
2017-Dec-28 19:59S 24°13' W 046°19'0 0.0
2017-Dec-28 19:29S 24°13' W 046°19'0 0.0
2017-Dec-28 18:59S 24°13' W 046°19'0 0.0
2017-Dec-28 18:29S 24°13' W 046°19'0 0.0
2017-Dec-28 17:59S 24°13' W 046°19'0 0.0
2017-Dec-28 17:29S 24°13' W 046°19'0 0.0
2017-Dec-28 16:56S 24°13' W 046°19'0 0.0
2017-Dec-28 16:29S 24°13' W 046°19'0 0.0
2017-Dec-28 15:59S 24°13' W 046°19'0 0.0
2017-Dec-28 15:29S 24°13' W 046°19'0 0.0
2017-Dec-28 14:59S 24°13' W 046°19'0 0.0
2017-Dec-28 14:26S 24°13' W 046°19'0 0.0
2017-Dec-28 13:59S 24°13' W 046°19'0 0.0
2017-Dec-28 13:29S 24°13' W 046°19'0 0.0
2017-Dec-28 12:59S 24°13' W 046°19'0 0.0
2017-Dec-28 12:23S 24°13' W 046°19'0 0.0
2017-Dec-28 11:59S 24°13' W 046°19'0 0.0
2017-Dec-28 11:26S 24°13' W 046°19'0 0.0
2017-Dec-28 10:59S 24°13' W 046°19'0 0.0
2017-Dec-28 10:29S 24°13' W 046°19'0 0.0
2017-Dec-28 09:59S 24°13' W 046°19'0 0.0
2017-Dec-28 09:29S 24°13' W 046°19'0 0.0
2017-Dec-28 08:59S 24°13' W 046°19'0 0.0
2017-Dec-28 08:29S 24°13' W 046°19'0 0.0
2017-Dec-28 07:53S 24°13' W 046°19'0 0.0
2017-Dec-28 07:29S 24°13' W 046°19'0 0.0
2017-Dec-28 06:59S 24°13' W 046°19'0 0.0
2017-Dec-28 06:29S 24°13' W 046°19'0 0.0
2017-Dec-28 05:59S 24°13' W 046°19'0 0.0
2017-Dec-28 05:29S 24°13' W 046°19'0 0.0
2017-Dec-28 04:53S 24°13' W 046°19'0 0.0
2017-Dec-28 04:26S 24°13' W 046°19'0 0.0
2017-Dec-28 03:59S 24°13' W 046°19'0 0.0
2017-Dec-28 03:29S 24°13' W 046°19'0 0.0
2017-Dec-28 02:59S 24°13' W 046°19'0 0.0
2017-Dec-28 02:26S 24°13' W 046°19'0 0.0
2017-Dec-28 01:59S 24°13' W 046°19'0 0.0
2017-Dec-28 01:29S 24°13' W 046°19'0 0.0
2017-Dec-28 00:59S 24°13' W 046°19'0 0.0
2017-Dec-28 00:29S 24°13' W 046°19'0 0.0
2017-Dec-27 23:59S 24°13' W 046°19'0 0.0
2017-Dec-27 23:23S 24°13' W 046°19'0 0.0
2017-Dec-27 22:59S 24°13' W 046°19'0 0.0
2017-Dec-27 22:29S 24°13' W 046°19'0 0.0
2017-Dec-27 21:59S 24°13' W 046°19'0 0.0
2017-Dec-27 21:29S 24°13' W 046°19'0 0.0
2017-Dec-27 20:56S 24°13' W 046°19'0 0.0
2017-Dec-27 20:23S 24°13' W 046°19'0 0.1
2017-Dec-27 19:59S 24°13' W 046°19'0 0.0
2017-Dec-27 19:29S 24°13' W 046°19'0 0.0
2017-Dec-27 18:59S 24°13' W 046°19'0 0.0
2017-Dec-27 18:29S 24°13' W 046°19'0 0.0
2017-Dec-27 17:59S 24°13' W 046°19'0 0.0
2017-Dec-27 17:29S 24°13' W 046°19'0 0.0
2017-Dec-27 16:59S 24°13' W 046°19'0 0.0
2017-Dec-27 16:23S 24°13' W 046°19'0 0.0
2017-Dec-27 15:59S 24°13' W 046°19'0 0.0
2017-Dec-27 15:29S 24°13' W 046°19'0 0.0
2017-Dec-27 14:59S 24°13' W 046°19'0 0.0
2017-Dec-27 14:29S 24°13' W 046°19'0 0.0
2017-Dec-27 13:59S 24°13' W 046°19'0 0.0
2017-Dec-27 13:29S 24°13' W 046°19'0 0.0
2017-Dec-27 12:59S 24°13' W 046°19'0 0.0
2017-Dec-27 12:29S 24°13' W 046°19'0 0.0
2017-Dec-27 11:59S 24°13' W 046°19'0 0.0
2017-Dec-27 11:29S 24°13' W 046°19'0 0.0
2017-Dec-27 10:53S 24°13' W 046°19'0 0.0
2017-Dec-27 10:29S 24°13' W 046°19'0 0.0
2017-Dec-27 09:59S 24°13' W 046°19'0 0.0
2017-Dec-27 09:29S 24°13' W 046°19'0 0.0
2017-Dec-27 08:59S 24°13' W 046°19'0 0.0
2017-Dec-27 08:29S 24°13' W 046°19'0 0.0
2017-Dec-27 07:50S 24°13' W 046°19'0 0.0
2017-Dec-27 07:29S 24°13' W 046°19'0 0.0
2017-Dec-27 06:53S 24°13' W 046°19'0 0.0
2017-Dec-27 06:29S 24°13' W 046°19'0 0.0
2017-Dec-27 05:50S 24°13' W 046°19'0 0.0
2017-Dec-27 05:29S 24°13' W 046°19'0 0.0
2017-Dec-27 04:59S 24°12' W 046°19'0 0.0
2017-Dec-27 04:29S 24°13' W 046°19'0 0.0
2017-Dec-27 03:59S 24°13' W 046°19'0 0.0
2017-Dec-27 03:29S 24°13' W 046°19'0 0.0
2017-Dec-27 02:59S 24°12' W 046°19'0 0.0
2017-Dec-27 02:29S 24°13' W 046°19'0 0.0
2017-Dec-27 01:53S 24°12' W 046°19'0 0.0
2017-Dec-27 01:29S 24°13' W 046°19'0 0.0
2017-Dec-27 00:59S 24°13' W 046°19'0 0.0
2017-Dec-27 00:23S 24°12' W 046°19'0 0.0
2017-Dec-26 23:59S 24°12' W 046°19'0 0.0
2017-Dec-26 23:29S 24°12' W 046°19'0 0.0
2017-Dec-26 22:53S 24°12' W 046°19'0 0.0
2017-Dec-26 22:29S 24°12' W 046°19'0 0.0
2017-Dec-26 21:59S 24°12' W 046°19'0 0.0
2017-Dec-26 21:29S 24°12' W 046°19'0 0.0
2017-Dec-26 20:59S 24°12' W 046°19'0 0.0
2017-Dec-26 20:29S 24°12' W 046°19'0 0.0
2017-Dec-26 19:59S 24°12' W 046°19'0 0.0
2017-Dec-26 19:30S 24°12' W 046°19'0 0.9
2017-Dec-26 19:00S 24°12' W 046°19'2 4.0
2017-Dec-26 18:30S 24°13' W 046°21'3 5.1
2017-Dec-26 18:00S 24°16' W 046°21'510.0
2017-Dec-26 17:31S 24°20' W 046°18'612.0
2017-Dec-26 17:00S 24°23' W 046°13'713.8
2017-Dec-26 16:30S 24°24' W 046°05'  

Dump ship's entire track history